SOV weather

Seldovia Airport
Seldovia, Alaska, United States

Public forecast

Using degrees Fahrenheit for public forecast. Weather courtesy of forecast.io.

METAR (pilot weather report)

Retrieved 2019/07/21 01:53 UTC (23 minutes ago):

PASO 210153Z AUTO 00000KT 10SM BKN039 OVC047 19/13 A3011 RMK AO2 SLP197 T01890128 TSNO

TAF (pilot weather forecast)

Forecast is more than 12 hours old.

Closest forecast is Homer Airport, 14.0 nm (26.0 km) NNE. Retrieved 2019/07/20 00:27 UTC (1 day ago):

TAF PAHO 202325Z 2100/2124 25011KT P6SM SCT045 BKN060 FM210600 VRB04KT P6SM SCT060 BKN100 FM211400 VRB03KT P6SM OVC045